sensor_id;sensor_type;location;lat;lon;timestamp;P1;durP1;ratioP1;P2;durP2;ratioP2
44486;SDS011;30191;50.908;6.962;2022-08-04T00:00:08;3.20;;;2.03;;
44486;SDS011;30191;50.908;6.962;2022-08-04T00:10:54;6.55;;;2.78;;
44486;SDS011;30191;50.908;6.962;2022-08-04T00:13:23;4.38;;;2.50;;
44486;SDS011;30191;50.908;6.962;2022-08-04T00:15:56;5.20;;;2.10;;
44486;SDS011;30191;50.908;6.962;2022-08-04T00:18:27;3.67;;;2.08;;
44486;SDS011;30191;50.908;6.962;2022-08-04T00:20:58;10.77;;;2.80;;
44486;SDS011;30191;50.908;6.962;2022-08-04T00:23:29;5.38;;;2.55;;
44486;SDS011;30191;50.908;6.962;2022-08-04T00:25:59;4.97;;;2.33;;
44486;SDS011;30191;50.908;6.962;2022-08-04T00:28:25;5.65;;;2.50;;
44486;SDS011;30191;50.908;6.962;2022-08-04T00:30:52;6.03;;;2.28;;
44486;SDS011;30191;50.908;6.962;2022-08-04T00:33:18;5.85;;;2.33;;
44486;SDS011;30191;50.908;6.962;2022-08-04T00:35:45;3.10;;;2.10;;
44486;SDS011;30191;50.908;6.962;2022-08-04T00:38:12;5.80;;;2.28;;
44486;SDS011;30191;50.908;6.962;2022-08-04T00:43:31;7.40;;;2.60;;
44486;SDS011;30191;50.908;6.962;2022-08-04T00:49:08;2.90;;;2.07;;
44486;SDS011;30191;50.908;6.962;2022-08-04T01:16:09;5.38;;;2.00;;
44486;SDS011;30191;50.908;6.962;2022-08-04T01:18:54;4.45;;;2.10;;
44486;SDS011;30191;50.908;6.962;2022-08-04T01:29:52;5.22;;;2.08;;
44486;SDS011;30191;50.908;6.962;2022-08-04T01:32:23;5.30;;;1.98;;
44486;SDS011;30191;50.908;6.962;2022-08-04T01:35:10;6.05;;;2.05;;
44486;SDS011;30191;50.908;6.962;2022-08-04T01:37:52;4.43;;;1.90;;
44486;SDS011;30191;50.908;6.962;2022-08-04T01:40:25;3.97;;;1.95;;
44486;SDS011;30191;50.908;6.962;2022-08-04T01:42:52;6.18;;;1.92;;
44486;SDS011;30191;50.908;6.962;2022-08-04T01:45:18;5.95;;;2.22;;
44486;SDS011;30191;50.908;6.962;2022-08-04T01:47:53;3.65;;;1.90;;
44486;SDS011;30191;50.908;6.962;2022-08-04T01:50:20;3.85;;;2.05;;
44486;SDS011;30191;50.908;6.962;2022-08-04T01:52:47;6.85;;;2.10;;
44486;SDS011;30191;50.908;6.962;2022-08-04T01:55:17;4.88;;;2.28;;
44486;SDS011;30191;50.908;6.962;2022-08-04T01:57:44;5.35;;;2.22;;
44486;SDS011;30191;50.908;6.962;2022-08-04T02:00:12;4.03;;;2.10;;
44486;SDS011;30191;50.908;6.962;2022-08-04T02:02:40;3.85;;;1.92;;
44486;SDS011;30191;50.908;6.962;2022-08-04T02:05:08;2.08;;;1.80;;
44486;SDS011;30191;50.908;6.962;2022-08-04T02:10:09;4.95;;;2.63;;
44486;SDS011;30191;50.908;6.962;2022-08-04T02:18:18;5.28;;;2.03;;
44486;SDS011;30191;50.908;6.962;2022-08-04T02:21:07;6.65;;;2.25;;
44486;SDS011;30191;50.908;6.962;2022-08-04T02:23:37;3.65;;;2.00;;
44486;SDS011;30191;50.908;6.962;2022-08-04T02:26:11;5.97;;;2.40;;
44486;SDS011;30191;50.908;6.962;2022-08-04T02:31:31;3.55;;;2.28;;
44486;SDS011;30191;50.908;6.962;2022-08-04T02:34:24;3.10;;;2.08;;
44486;SDS011;30191;50.908;6.962;2022-08-04T02:36:56;6.13;;;1.88;;
44486;SDS011;30191;50.908;6.962;2022-08-04T02:39:24;4.20;;;1.83;;
44486;SDS011;30191;50.908;6.962;2022-08-04T02:41:55;9.20;;;2.13;;
44486;SDS011;30191;50.908;6.962;2022-08-04T02:44:23;4.72;;;2.00;;
44486;SDS011;30191;50.908;6.962;2022-08-04T02:46:52;4.80;;;2.20;;
44486;SDS011;30191;50.908;6.962;2022-08-04T02:49:20;5.75;;;2.08;;
44486;SDS011;30191;50.908;6.962;2022-08-04T02:51:50;5.50;;;2.15;;
44486;SDS011;30191;50.908;6.962;2022-08-04T02:54:21;5.55;;;2.20;;
44486;SDS011;30191;50.908;6.962;2022-08-04T02:56:52;6.07;;;2.15;;
44486;SDS011;30191;50.908;6.962;2022-08-04T02:59:22;5.25;;;2.38;;
44486;SDS011;30191;50.908;6.962;2022-08-04T03:01:50;3.75;;;2.65;;
44486;SDS011;30191;50.908;6.962;2022-08-04T03:29:50;4.53;;;2.30;;
44486;SDS011;30191;50.908;6.962;2022-08-04T03:52:39;5.28;;;2.30;;
44486;SDS011;30191;50.908;6.962;2022-08-04T04:03:52;7.07;;;2.28;;
44486;SDS011;30191;50.908;6.962;2022-08-04T04:42:41;6.80;;;2.60;;
44486;SDS011;30191;50.908;6.962;2022-08-04T04:56:58;5.28;;;2.15;;
44486;SDS011;30191;50.908;6.962;2022-08-04T04:59:27;3.58;;;2.20;;
44486;SDS011;30191;50.908;6.962;2022-08-04T05:10:58;4.35;;;2.25;;
44486;SDS011;30191;50.908;6.962;2022-08-04T05:13:43;5.40;;;2.15;;
44486;SDS011;30191;50.908;6.962;2022-08-04T05:16:16;4.45;;;2.13;;
44486;SDS011;30191;50.908;6.962;2022-08-04T05:18:52;4.03;;;2.20;;
44486;SDS011;30191;50.908;6.962;2022-08-04T05:21:32;6.10;;;2.50;;
44486;SDS011;30191;50.908;6.962;2022-08-04T05:24:01;4.50;;;2.10;;
44486;SDS011;30191;50.908;6.962;2022-08-04T05:26:34;9.88;;;2.40;;
44486;SDS011;30191;50.908;6.962;2022-08-04T05:29:10;7.85;;;2.08;;
44486;SDS011;30191;50.908;6.962;2022-08-04T05:31:41;3.22;;;2.40;;
44486;SDS011;30191;50.908;6.962;2022-08-04T05:34:19;14.40;;;3.00;;
44486;SDS011;30191;50.908;6.962;2022-08-04T05:36:57;10.27;;;2.20;;
44486;SDS011;30191;50.908;6.962;2022-08-04T05:39:27;6.03;;;2.60;;
44486;SDS011;30191;50.908;6.962;2022-08-04T05:41:56;4.28;;;2.00;;
44486;SDS011;30191;50.908;6.962;2022-08-04T05:44:23;4.22;;;2.20;;
44486;SDS011;30191;50.908;6.962;2022-08-04T05:46:51;5.45;;;2.60;;
44486;SDS011;30191;50.908;6.962;2022-08-04T05:49:23;4.20;;;1.98;;
44486;SDS011;30191;50.908;6.962;2022-08-04T05:51:52;7.75;;;3.53;;
44486;SDS011;30191;50.908;6.962;2022-08-04T05:54:23;7.28;;;2.67;;
44486;SDS011;30191;50.908;6.962;2022-08-04T05:56:50;3.17;;;2.20;;
44486;SDS011;30191;50.908;6.962;2022-08-04T05:59:18;5.82;;;2.08;;
44486;SDS011;30191;50.908;6.962;2022-08-04T06:01:49;9.38;;;2.10;;
44486;SDS011;30191;50.908;6.962;2022-08-04T06:04:17;4.93;;;2.20;;
44486;SDS011;30191;50.908;6.962;2022-08-04T06:06:45;4.00;;;2.30;;
44486;SDS011;30191;50.908;6.962;2022-08-04T06:09:13;3.92;;;2.28;;
44486;SDS011;30191;50.908;6.962;2022-08-04T06:11:39;2.20;;;1.80;;
44486;SDS011;30191;50.908;6.962;2022-08-04T06:14:06;3.80;;;2.22;;
44486;SDS011;30191;50.908;6.962;2022-08-04T06:16:38;2.30;;;2.00;;
44486;SDS011;30191;50.908;6.962;2022-08-04T06:19:07;3.08;;;2.08;;
44486;SDS011;30191;50.908;6.962;2022-08-04T06:21:36;4.65;;;2.25;;
44486;SDS011;30191;50.908;6.962;2022-08-04T06:24:04;4.80;;;2.10;;
44486;SDS011;30191;50.908;6.962;2022-08-04T06:26:34;3.13;;;2.08;;
44486;SDS011;30191;50.908;6.962;2022-08-04T06:29:01;6.63;;;2.00;;
44486;SDS011;30191;50.908;6.962;2022-08-04T06:31:28;2.88;;;1.88;;
44486;SDS011;30191;50.908;6.962;2022-08-04T06:34:17;3.10;;;2.00;;
44486;SDS011;30191;50.908;6.962;2022-08-04T06:36:43;2.45;;;1.98;;
44486;SDS011;30191;50.908;6.962;2022-08-04T06:39:09;2.50;;;1.90;;
44486;SDS011;30191;50.908;6.962;2022-08-04T06:41:36;3.80;;;1.90;;
44486;SDS011;30191;50.908;6.962;2022-08-04T06:44:04;6.20;;;2.10;;
44486;SDS011;30191;50.908;6.962;2022-08-04T06:46:33;5.18;;;2.15;;
44486;SDS011;30191;50.908;6.962;2022-08-04T06:49:01;8.48;;;1.98;;
44486;SDS011;30191;50.908;6.962;2022-08-04T06:51:29;7.93;;;2.45;;
44486;SDS011;30191;50.908;6.962;2022-08-04T06:53:56;5.80;;;1.67;;
44486;SDS011;30191;50.908;6.962;2022-08-04T06:56:22;4.75;;;2.20;;
44486;SDS011;30191;50.908;6.962;2022-08-04T06:58:49;6.78;;;2.63;;
44486;SDS011;30191;50.908;6.962;2022-08-04T07:01:20;8.75;;;2.50;;
44486;SDS011;30191;50.908;6.962;2022-08-04T07:03:47;7.85;;;2.10;;
44486;SDS011;30191;50.908;6.962;2022-08-04T07:06:13;9.02;;;2.40;;
44486;SDS011;30191;50.908;6.962;2022-08-04T07:08:39;15.93;;;2.38;;
44486;SDS011;30191;50.908;6.962;2022-08-04T07:11:05;9.57;;;2.70;;
44486;SDS011;30191;50.908;6.962;2022-08-04T07:13:32;6.10;;;1.90;;
44486;SDS011;30191;50.908;6.962;2022-08-04T07:15:58;6.40;;;2.00;;
44486;SDS011;30191;50.908;6.962;2022-08-04T07:18:25;7.80;;;2.00;;
44486;SDS011;30191;50.908;6.962;2022-08-04T07:20:51;9.63;;;2.63;;
44486;SDS011;30191;50.908;6.962;2022-08-04T07:23:21;8.95;;;2.20;;
44486;SDS011;30191;50.908;6.962;2022-08-04T07:25:49;10.15;;;2.40;;
44486;SDS011;30191;50.908;6.962;2022-08-04T07:28:19;6.63;;;2.30;;
44486;SDS011;30191;50.908;6.962;2022-08-04T07:30:46;18.83;;;2.50;;
44486;SDS011;30191;50.908;6.962;2022-08-04T07:33:13;6.38;;;1.98;;
44486;SDS011;30191;50.908;6.962;2022-08-04T07:35:43;7.43;;;2.37;;
44486;SDS011;30191;50.908;6.962;2022-08-04T07:38:10;4.05;;;2.20;;
44486;SDS011;30191;50.908;6.962;2022-08-04T07:40:36;7.05;;;2.50;;
44486;SDS011;30191;50.908;6.962;2022-08-04T07:43:02;7.55;;;2.30;;
44486;SDS011;30191;50.908;6.962;2022-08-04T07:45:29;7.22;;;2.50;;
44486;SDS011;30191;50.908;6.962;2022-08-04T07:47:55;5.13;;;2.30;;
44486;SDS011;30191;50.908;6.962;2022-08-04T07:50:21;5.65;;;1.77;;
44486;SDS011;30191;50.908;6.962;2022-08-04T07:52:47;5.40;;;2.50;;
44486;SDS011;30191;50.908;6.962;2022-08-04T07:55:13;10.35;;;2.22;;
44486;SDS011;30191;50.908;6.962;2022-08-04T07:57:40;5.78;;;2.10;;
44486;SDS011;30191;50.908;6.962;2022-08-04T08:00:06;5.28;;;1.92;;
44486;SDS011;30191;50.908;6.962;2022-08-04T08:02:32;4.07;;;1.98;;
44486;SDS011;30191;50.908;6.962;2022-08-04T08:04:59;4.35;;;2.00;;
44486;SDS011;30191;50.908;6.962;2022-08-04T08:07:26;6.53;;;1.92;;
44486;SDS011;30191;50.908;6.962;2022-08-04T08:09:51;7.15;;;1.80;;
44486;SDS011;30191;50.908;6.962;2022-08-04T08:12:17;7.03;;;1.90;;
44486;SDS011;30191;50.908;6.962;2022-08-04T08:14:43;3.42;;;2.25;;
44486;SDS011;30191;50.908;6.962;2022-08-04T08:17:10;5.07;;;1.90;;
44486;SDS011;30191;50.908;6.962;2022-08-04T08:19:35;5.97;;;1.75;;
44486;SDS011;30191;50.908;6.962;2022-08-04T08:22:02;9.23;;;1.90;;
44486;SDS011;30191;50.908;6.962;2022-08-04T08:24:29;12.65;;;2.30;;
44486;SDS011;30191;50.908;6.962;2022-08-04T08:26:56;8.85;;;2.15;;
44486;SDS011;30191;50.908;6.962;2022-08-04T08:29:24;5.05;;;1.55;;
44486;SDS011;30191;50.908;6.962;2022-08-04T08:31:50;8.45;;;2.25;;
44486;SDS011;30191;50.908;6.962;2022-08-04T08:34:16;6.07;;;2.35;;
44486;SDS011;30191;50.908;6.962;2022-08-04T08:36:44;12.00;;;2.40;;
44486;SDS011;30191;50.908;6.962;2022-08-04T08:39:23;7.70;;;2.00;;
44486;SDS011;30191;50.908;6.962;2022-08-04T08:42:00;7.05;;;1.80;;
44486;SDS011;30191;50.908;6.962;2022-08-04T08:50:41;3.35;;;1.92;;
44486;SDS011;30191;50.908;6.962;2022-08-04T08:59:00;8.20;;;2.08;;
44486;SDS011;30191;50.908;6.962;2022-08-04T09:10:04;8.68;;;2.40;;
44486;SDS011;30191;50.908;6.962;2022-08-04T09:12:56;14.55;;;2.10;;
44486;SDS011;30191;50.908;6.962;2022-08-04T09:18:01;3.60;;;1.73;;
44486;SDS011;30191;50.908;6.962;2022-08-04T09:20:55;6.18;;;1.73;;
44486;SDS011;30191;50.908;6.962;2022-08-04T09:32:00;7.57;;;1.52;;
44486;SDS011;30191;50.908;6.962;2022-08-04T09:45:49;6.85;;;1.65;;
44486;SDS011;30191;50.908;6.962;2022-08-04T09:48:36;4.50;;;1.60;;
44486;SDS011;30191;50.908;6.962;2022-08-04T09:51:10;4.38;;;1.52;;
44486;SDS011;30191;50.908;6.962;2022-08-04T09:53:48;4.30;;;1.40;;
44486;SDS011;30191;50.908;6.962;2022-08-04T09:56:27;4.95;;;1.63;;
44486;SDS011;30191;50.908;6.962;2022-08-04T10:01:31;4.18;;;1.30;;
44486;SDS011;30191;50.908;6.962;2022-08-04T10:03:59;3.67;;;1.20;;
44486;SDS011;30191;50.908;6.962;2022-08-04T10:06:31;2.65;;;1.10;;
44486;SDS011;30191;50.908;6.962;2022-08-04T10:09:16;4.78;;;1.55;;
44486;SDS011;30191;50.908;6.962;2022-08-04T10:17:33;4.95;;;1.60;;
44486;SDS011;30191;50.908;6.962;2022-08-04T10:35:13;5.32;;;1.15;;
44486;SDS011;30191;50.908;6.962;2022-08-04T10:40:45;6.32;;;1.40;;
44486;SDS011;30191;50.908;6.962;2022-08-04T10:43:21;7.45;;;1.40;;
44486;SDS011;30191;50.908;6.962;2022-08-04T10:46:22;7.57;;;1.42;;
44486;SDS011;30191;50.908;6.962;2022-08-04T10:49:03;7.85;;;1.75;;
44486;SDS011;30191;50.908;6.962;2022-08-04T10:51:32;7.93;;;1.20;;
44486;SDS011;30191;50.908;6.962;2022-08-04T10:54:06;5.15;;;1.10;;
44486;SDS011;30191;50.908;6.962;2022-08-04T10:59:32;3.08;;;0.80;;
44486;SDS011;30191;50.908;6.962;2022-08-04T11:04:52;3.15;;;0.95;;
44486;SDS011;30191;50.908;6.962;2022-08-04T11:07:29;3.45;;;0.70;;
44486;SDS011;30191;50.908;6.962;2022-08-04T11:09:58;5.20;;;1.13;;
44486;SDS011;30191;50.908;6.962;2022-08-04T11:12:25;3.75;;;1.10;;
44486;SDS011;30191;50.908;6.962;2022-08-04T11:14:57;11.35;;;1.73;;
44486;SDS011;30191;50.908;6.962;2022-08-04T11:17:37;4.35;;;1.27;;
44486;SDS011;30191;50.908;6.962;2022-08-04T11:23:14;4.63;;;1.20;;
44486;SDS011;30191;50.908;6.962;2022-08-04T11:28:32;6.22;;;1.27;;
44486;SDS011;30191;50.908;6.962;2022-08-04T11:31:24;5.20;;;1.33;;
44486;SDS011;30191;50.908;6.962;2022-08-04T11:34:03;9.88;;;1.52;;
44486;SDS011;30191;50.908;6.962;2022-08-04T11:39:24;6.43;;;1.48;;
44486;SDS011;30191;50.908;6.962;2022-08-04T11:42:00;6.70;;;1.20;;
44486;SDS011;30191;50.908;6.962;2022-08-04T11:44:36;6.10;;;1.30;;
44486;SDS011;30191;50.908;6.962;2022-08-04T11:52:32;7.65;;;1.60;;
44486;SDS011;30191;50.908;6.962;2022-08-04T11:55:02;10.23;;;1.70;;
44486;SDS011;30191;50.908;6.962;2022-08-04T11:57:31;12.07;;;1.88;;
44486;SDS011;30191;50.908;6.962;2022-08-04T11:59:57;5.03;;;1.45;;
44486;SDS011;30191;50.908;6.962;2022-08-04T12:05:01;4.53;;;1.10;;
44486;SDS011;30191;50.908;6.962;2022-08-04T12:09:59;5.85;;;1.40;;
44486;SDS011;30191;50.908;6.962;2022-08-04T12:18:42;4.40;;;1.20;;
44486;SDS011;30191;50.908;6.962;2022-08-04T12:21:17;12.27;;;1.60;;
44486;SDS011;30191;50.908;6.962;2022-08-04T12:24:17;9.75;;;1.25;;
44486;SDS011;30191;50.908;6.962;2022-08-04T12:26:52;6.00;;;1.63;;
44486;SDS011;30191;50.908;6.962;2022-08-04T12:29:22;4.05;;;1.30;;
44486;SDS011;30191;50.908;6.962;2022-08-04T12:34:58;5.78;;;1.42;;
44486;SDS011;30191;50.908;6.962;2022-08-04T12:40:40;4.57;;;1.30;;
44486;SDS011;30191;50.908;6.962;2022-08-04T12:43:16;7.18;;;1.52;;
44486;SDS011;30191;50.908;6.962;2022-08-04T12:45:49;9.35;;;1.48;;
44486;SDS011;30191;50.908;6.962;2022-08-04T12:48:21;17.63;;;1.92;;
44486;SDS011;30191;50.908;6.962;2022-08-04T12:50:49;13.38;;;1.67;;
44486;SDS011;30191;50.908;6.962;2022-08-04T12:53:18;5.13;;;1.60;;
44486;SDS011;30191;50.908;6.962;2022-08-04T12:55:47;8.25;;;1.67;;
44486;SDS011;30191;50.908;6.962;2022-08-04T12:58:17;7.20;;;1.58;;
44486;SDS011;30191;50.908;6.962;2022-08-04T13:00:49;7.60;;;1.52;;
44486;SDS011;30191;50.908;6.962;2022-08-04T13:03:19;8.70;;;1.67;;
44486;SDS011;30191;50.908;6.962;2022-08-04T13:05:47;6.90;;;1.77;;
44486;SDS011;30191;50.908;6.962;2022-08-04T13:08:19;15.05;;;1.52;;
44486;SDS011;30191;50.908;6.962;2022-08-04T13:10:47;21.95;;;3.85;;
44486;SDS011;30191;50.908;6.962;2022-08-04T13:13:19;7.82;;;1.80;;
44486;SDS011;30191;50.908;6.962;2022-08-04T13:16:21;7.45;;;2.50;;
44486;SDS011;30191;50.908;6.962;2022-08-04T13:18:45;10.02;;;1.90;;
44486;SDS011;30191;50.908;6.962;2022-08-04T13:21:20;15.82;;;4.15;;
44486;SDS011;30191;50.908;6.962;2022-08-04T13:23:49;31.90;;;6.05;;
44486;SDS011;30191;50.908;6.962;2022-08-04T13:26:16;14.93;;;3.65;;
44486;SDS011;30191;50.908;6.962;2022-08-04T13:28:44;14.20;;;1.58;;
44486;SDS011;30191;50.908;6.962;2022-08-04T13:31:15;8.13;;;1.60;;
44486;SDS011;30191;50.908;6.962;2022-08-04T13:33:45;6.10;;;1.50;;
44486;SDS011;30191;50.908;6.962;2022-08-04T13:36:13;8.68;;;1.60;;
44486;SDS011;30191;50.908;6.962;2022-08-04T13:38:48;3.25;;;1.40;;
44486;SDS011;30191;50.908;6.962;2022-08-04T13:41:20;6.72;;;1.55;;
44486;SDS011;30191;50.908;6.962;2022-08-04T13:43:48;4.38;;;1.50;;
44486;SDS011;30191;50.908;6.962;2022-08-04T13:46:19;4.65;;;1.40;;
44486;SDS011;30191;50.908;6.962;2022-08-04T13:48:48;4.85;;;1.27;;
44486;SDS011;30191;50.908;6.962;2022-08-04T13:51:16;7.10;;;1.65;;
44486;SDS011;30191;50.908;6.962;2022-08-04T13:53:44;3.08;;;1.52;;
44486;SDS011;30191;50.908;6.962;2022-08-04T13:56:18;6.00;;;1.55;;
44486;SDS011;30191;50.908;6.962;2022-08-04T13:58:46;6.10;;;1.98;;
44486;SDS011;30191;50.908;6.962;2022-08-04T14:01:18;4.22;;;1.40;;
44486;SDS011;30191;50.908;6.962;2022-08-04T14:08:53;2.53;;;1.30;;
44486;SDS011;30191;50.908;6.962;2022-08-04T14:11:31;6.32;;;1.58;;
44486;SDS011;30191;50.908;6.962;2022-08-04T14:14:00;8.05;;;1.52;;
44486;SDS011;30191;50.908;6.962;2022-08-04T14:16:36;6.35;;;1.40;;
44486;SDS011;30191;50.908;6.962;2022-08-04T14:19:02;4.00;;;1.33;;
44486;SDS011;30191;50.908;6.962;2022-08-04T14:21:28;7.45;;;1.40;;
44486;SDS011;30191;50.908;6.962;2022-08-04T14:24:00;4.35;;;1.70;;
44486;SDS011;30191;50.908;6.962;2022-08-04T14:29:16;5.20;;;1.90;;
44486;SDS011;30191;50.908;6.962;2022-08-04T14:31:46;6.40;;;2.80;;
44486;SDS011;30191;50.908;6.962;2022-08-04T14:34:25;10.10;;;2.10;;
44486;SDS011;30191;50.908;6.962;2022-08-04T14:36:52;7.10;;;1.50;;
44486;SDS011;30191;50.908;6.962;2022-08-04T14:39:18;5.88;;;1.52;;
44486;SDS011;30191;50.908;6.962;2022-08-04T14:42:03;8.98;;;2.08;;
44486;SDS011;30191;50.908;6.962;2022-08-04T14:44:29;8.02;;;1.77;;
44486;SDS011;30191;50.908;6.962;2022-08-04T14:46:55;5.18;;;2.00;;
44486;SDS011;30191;50.908;6.962;2022-08-04T14:49:23;7.90;;;1.83;;
44486;SDS011;30191;50.908;6.962;2022-08-04T14:51:56;5.63;;;1.77;;
44486;SDS011;30191;50.908;6.962;2022-08-04T14:54:28;6.00;;;1.65;;
44486;SDS011;30191;50.908;6.962;2022-08-04T14:56:56;6.47;;;1.80;;
44486;SDS011;30191;50.908;6.962;2022-08-04T14:59:39;5.70;;;1.95;;
44486;SDS011;30191;50.908;6.962;2022-08-04T15:02:14;11.02;;;1.77;;
44486;SDS011;30191;50.908;6.962;2022-08-04T15:04:41;6.30;;;1.95;;
44486;SDS011;30191;50.908;6.962;2022-08-04T15:07:09;4.47;;;1.70;;
44486;SDS011;30191;50.908;6.962;2022-08-04T15:09:35;5.97;;;1.70;;
44486;SDS011;30191;50.908;6.962;2022-08-04T15:12:01;7.85;;;1.50;;
44486;SDS011;30191;50.908;6.962;2022-08-04T15:14:28;5.53;;;1.80;;
44486;SDS011;30191;50.908;6.962;2022-08-04T15:16:55;8.18;;;1.70;;
44486;SDS011;30191;50.908;6.962;2022-08-04T15:19:22;13.38;;;2.63;;
44486;SDS011;30191;50.908;6.962;2022-08-04T15:21:48;9.38;;;1.95;;
44486;SDS011;30191;50.908;6.962;2022-08-04T15:24:14;18.27;;;4.25;;
44486;SDS011;30191;50.908;6.962;2022-08-04T15:26:41;7.97;;;1.50;;
44486;SDS011;30191;50.908;6.962;2022-08-04T15:29:34;5.05;;;1.52;;
44486;SDS011;30191;50.908;6.962;2022-08-04T15:32:02;4.50;;;1.30;;
44486;SDS011;30191;50.908;6.962;2022-08-04T15:37:12;10.60;;;1.38;;
44486;SDS011;30191;50.908;6.962;2022-08-04T15:39:50;2.67;;;1.40;;
44486;SDS011;30191;50.908;6.962;2022-08-04T15:50:29;5.22;;;1.35;;
44486;SDS011;30191;50.908;6.962;2022-08-04T15:55:40;9.50;;;3.20;;
44486;SDS011;30191;50.908;6.962;2022-08-04T15:58:07;4.85;;;1.63;;
44486;SDS011;30191;50.908;6.962;2022-08-04T16:19:07;5.72;;;2.22;;
44486;SDS011;30191;50.908;6.962;2022-08-04T16:21:53;4.47;;;1.83;;
44486;SDS011;30191;50.908;6.962;2022-08-04T16:27:04;13.80;;;2.35;;
44486;SDS011;30191;50.908;6.962;2022-08-04T16:34:38;7.35;;;2.20;;
44486;SDS011;30191;50.908;6.962;2022-08-04T16:37:09;7.00;;;1.92;;
44486;SDS011;30191;50.908;6.962;2022-08-04T16:39:36;9.73;;;2.58;;
44486;SDS011;30191;50.908;6.962;2022-08-04T16:55:11;7.72;;;2.58;;
44486;SDS011;30191;50.908;6.962;2022-08-04T16:57:39;5.93;;;2.33;;
44486;SDS011;30191;50.908;6.962;2022-08-04T17:00:05;6.97;;;2.95;;
44486;SDS011;30191;50.908;6.962;2022-08-04T17:02:32;11.02;;;3.08;;
44486;SDS011;30191;50.908;6.962;2022-08-04T17:04:59;9.98;;;2.60;;
44486;SDS011;30191;50.908;6.962;2022-08-04T17:07:25;9.80;;;3.10;;
44486;SDS011;30191;50.908;6.962;2022-08-04T17:09:51;11.90;;;3.25;;
44486;SDS011;30191;50.908;6.962;2022-08-04T17:12:16;4.03;;;2.70;;
44486;SDS011;30191;50.908;6.962;2022-08-04T17:14:42;13.15;;;3.60;;
44486;SDS011;30191;50.908;6.962;2022-08-04T17:17:08;8.48;;;4.30;;
44486;SDS011;30191;50.908;6.962;2022-08-04T17:19:34;10.57;;;3.15;;
44486;SDS011;30191;50.908;6.962;2022-08-04T17:22:02;9.77;;;2.85;;
44486;SDS011;30191;50.908;6.962;2022-08-04T17:24:31;11.23;;;3.38;;
44486;SDS011;30191;50.908;6.962;2022-08-04T17:26:58;17.40;;;3.65;;
44486;SDS011;30191;50.908;6.962;2022-08-04T17:29:24;11.90;;;3.22;;
44486;SDS011;30191;50.908;6.962;2022-08-04T17:31:55;24.23;;;4.60;;
44486;SDS011;30191;50.908;6.962;2022-08-04T17:34:21;13.52;;;3.13;;
44486;SDS011;30191;50.908;6.962;2022-08-04T17:36:49;6.85;;;3.33;;
44486;SDS011;30191;50.908;6.962;2022-08-04T17:39:16;11.68;;;3.63;;
44486;SDS011;30191;50.908;6.962;2022-08-04T17:41:44;10.15;;;3.60;;
44486;SDS011;30191;50.908;6.962;2022-08-04T17:44:11;8.25;;;3.00;;
44486;SDS011;30191;50.908;6.962;2022-08-04T17:46:43;9.40;;;2.85;;
44486;SDS011;30191;50.908;6.962;2022-08-04T17:54:15;11.20;;;3.53;;
44486;SDS011;30191;50.908;6.962;2022-08-04T18:07:16;9.05;;;2.50;;
44486;SDS011;30191;50.908;6.962;2022-08-04T18:12:11;7.10;;;2.72;;
44486;SDS011;30191;50.908;6.962;2022-08-04T18:14:46;17.02;;;2.72;;
44486;SDS011;30191;50.908;6.962;2022-08-04T18:17:14;17.20;;;2.80;;
44486;SDS011;30191;50.908;6.962;2022-08-04T18:19:55;8.77;;;2.30;;
44486;SDS011;30191;50.908;6.962;2022-08-04T18:22:21;5.32;;;2.38;;
44486;SDS011;30191;50.908;6.962;2022-08-04T18:24:47;8.35;;;2.30;;
44486;SDS011;30191;50.908;6.962;2022-08-04T18:27:13;7.43;;;1.92;;
44486;SDS011;30191;50.908;6.962;2022-08-04T18:29:39;12.77;;;2.45;;
44486;SDS011;30191;50.908;6.962;2022-08-04T18:32:06;7.45;;;2.20;;
44486;SDS011;30191;50.908;6.962;2022-08-04T18:34:32;6.03;;;2.05;;
44486;SDS011;30191;50.908;6.962;2022-08-04T18:36:59;8.80;;;2.28;;
44486;SDS011;30191;50.908;6.962;2022-08-04T18:39:25;6.70;;;1.98;;
44486;SDS011;30191;50.908;6.962;2022-08-04T18:41:52;6.35;;;2.00;;
44486;SDS011;30191;50.908;6.962;2022-08-04T18:44:18;8.18;;;2.03;;
44486;SDS011;30191;50.908;6.962;2022-08-04T18:46:45;8.68;;;2.42;;
44486;SDS011;30191;50.908;6.962;2022-08-04T18:49:11;4.68;;;2.30;;
44486;SDS011;30191;50.908;6.962;2022-08-04T18:51:36;10.55;;;2.22;;
44486;SDS011;30191;50.908;6.962;2022-08-04T18:54:05;7.38;;;2.55;;
44486;SDS011;30191;50.908;6.962;2022-08-04T18:56:31;6.68;;;2.45;;
44486;SDS011;30191;50.908;6.962;2022-08-04T18:58:58;10.02;;;2.28;;
44486;SDS011;30191;50.908;6.962;2022-08-04T19:01:24;10.18;;;2.33;;
44486;SDS011;30191;50.908;6.962;2022-08-04T19:03:50;8.90;;;2.55;;
44486;SDS011;30191;50.908;6.962;2022-08-04T19:06:17;9.35;;;2.30;;
44486;SDS011;30191;50.908;6.962;2022-08-04T19:08:43;6.63;;;2.70;;
44486;SDS011;30191;50.908;6.962;2022-08-04T19:11:09;10.30;;;2.53;;
44486;SDS011;30191;50.908;6.962;2022-08-04T19:13:35;7.18;;;2.28;;
44486;SDS011;30191;50.908;6.962;2022-08-04T19:16:01;6.47;;;2.33;;
44486;SDS011;30191;50.908;6.962;2022-08-04T19:18:27;8.13;;;2.67;;
44486;SDS011;30191;50.908;6.962;2022-08-04T19:20:53;9.65;;;2.13;;
44486;SDS011;30191;50.908;6.962;2022-08-04T19:23:19;7.50;;;2.05;;
44486;SDS011;30191;50.908;6.962;2022-08-04T19:25:45;8.48;;;2.10;;
44486;SDS011;30191;50.908;6.962;2022-08-04T19:28:11;7.00;;;2.40;;
44486;SDS011;30191;50.908;6.962;2022-08-04T19:30:37;9.68;;;2.20;;
44486;SDS011;30191;50.908;6.962;2022-08-04T19:33:03;10.85;;;2.15;;
44486;SDS011;30191;50.908;6.962;2022-08-04T19:35:29;7.93;;;2.42;;
44486;SDS011;30191;50.908;6.962;2022-08-04T19:37:55;7.68;;;2.28;;
44486;SDS011;30191;50.908;6.962;2022-08-04T19:40:21;9.65;;;2.45;;
44486;SDS011;30191;50.908;6.962;2022-08-04T19:42:48;9.15;;;2.70;;
44486;SDS011;30191;50.908;6.962;2022-08-04T19:45:14;7.95;;;2.30;;
44486;SDS011;30191;50.908;6.962;2022-08-04T19:47:39;7.13;;;2.22;;
44486;SDS011;30191;50.908;6.962;2022-08-04T19:50:05;8.27;;;2.10;;
44486;SDS011;30191;50.908;6.962;2022-08-04T19:52:31;8.02;;;2.10;;
44486;SDS011;30191;50.908;6.962;2022-08-04T19:54:57;6.43;;;2.25;;
44486;SDS011;30191;50.908;6.962;2022-08-04T19:57:22;8.40;;;2.10;;
44486;SDS011;30191;50.908;6.962;2022-08-04T19:59:48;7.50;;;2.60;;
44486;SDS011;30191;50.908;6.962;2022-08-04T20:02:14;7.95;;;2.03;;
44486;SDS011;30191;50.908;6.962;2022-08-04T20:04:40;10.10;;;2.30;;
44486;SDS011;30191;50.908;6.962;2022-08-04T20:07:05;7.82;;;2.38;;
44486;SDS011;30191;50.908;6.962;2022-08-04T20:09:31;6.00;;;1.70;;
44486;SDS011;30191;50.908;6.962;2022-08-04T20:11:56;5.10;;;2.05;;
44486;SDS011;30191;50.908;6.962;2022-08-04T20:14:23;5.93;;;2.17;;
44486;SDS011;30191;50.908;6.962;2022-08-04T20:16:49;5.28;;;2.13;;
44486;SDS011;30191;50.908;6.962;2022-08-04T20:19:15;9.63;;;2.25;;
44486;SDS011;30191;50.908;6.962;2022-08-04T20:21:41;8.80;;;2.10;;
44486;SDS011;30191;50.908;6.962;2022-08-04T20:24:06;5.45;;;2.30;;
44486;SDS011;30191;50.908;6.962;2022-08-04T20:26:32;6.63;;;2.20;;
44486;SDS011;30191;50.908;6.962;2022-08-04T20:28:58;7.38;;;2.42;;
44486;SDS011;30191;50.908;6.962;2022-08-04T20:31:24;3.20;;;2.08;;
44486;SDS011;30191;50.908;6.962;2022-08-04T20:33:49;5.18;;;1.95;;
44486;SDS011;30191;50.908;6.962;2022-08-04T20:36:15;5.88;;;2.20;;
44486;SDS011;30191;50.908;6.962;2022-08-04T20:38:41;7.70;;;2.10;;
44486;SDS011;30191;50.908;6.962;2022-08-04T20:41:06;6.25;;;2.03;;
44486;SDS011;30191;50.908;6.962;2022-08-04T20:43:32;8.35;;;2.05;;
44486;SDS011;30191;50.908;6.962;2022-08-04T20:45:58;4.30;;;2.00;;
44486;SDS011;30191;50.908;6.962;2022-08-04T20:48:27;5.50;;;2.10;;
44486;SDS011;30191;50.908;6.962;2022-08-04T20:50:53;6.18;;;2.17;;
44486;SDS011;30191;50.908;6.962;2022-08-04T20:53:19;9.52;;;2.30;;
44486;SDS011;30191;50.908;6.962;2022-08-04T20:55:45;5.32;;;1.85;;